createdAt,value
2019-04-19T00:00:37.031Z,68.32
2019-04-19T00:01:44.781Z,68.41
2019-04-19T00:02:39.985Z,68.41
2019-04-19T00:03:38.809Z,68.51
2019-04-19T00:04:39.434Z,68.60
2019-04-19T00:05:38.662Z,68.98
2019-04-19T00:06:37.804Z,68.60
2019-04-19T00:07:35.874Z,68.88
2019-04-19T00:08:49.430Z,68.88
2019-04-19T00:09:46.752Z,68.60
2019-04-19T00:10:46.066Z,68.70
2019-04-19T00:11:42.167Z,69.56
2019-04-19T00:12:46.023Z,69.27
2019-04-19T00:13:36.616Z,69.46
2019-04-19T00:14:35.818Z,69.56
2019-04-19T00:15:36.266Z,69.37
2019-04-19T00:16:36.333Z,70.13
2019-04-19T00:17:37.022Z,70.42
2019-04-19T00:18:37.911Z,70.51
2019-04-19T00:19:58.029Z,70.61
2019-04-19T00:21:01.936Z,71.23
2019-04-19T00:21:58.239Z,71.04
2019-04-19T00:22:55.421Z,70.95
2019-04-19T00:23:42.566Z,71.33
2019-04-19T00:24:35.417Z,71.04
2019-04-19T00:25:35.020Z,71.23
2019-04-19T00:26:35.985Z,71.14
2019-04-19T00:27:41.640Z,71.62
2019-04-19T00:28:42.251Z,71.52
2019-04-19T00:29:44.810Z,71.62
2019-04-19T00:30:47.638Z,72.28
2019-04-19T00:31:45.133Z,72.19
2019-04-19T00:32:51.878Z,72.28
2019-04-19T00:33:41.687Z,72.19
2019-04-19T00:34:35.728Z,72.00
2019-04-19T00:35:34.796Z,71.52
2019-04-19T00:36:34.666Z,71.91
2019-04-19T00:37:34.611Z,71.14
2019-04-19T00:38:42.713Z,71.43
2019-04-19T00:39:51.843Z,72.38
2019-04-19T00:40:47.296Z,72.09
2019-04-19T00:41:56.997Z,72.09
2019-04-19T00:42:48.435Z,72.19
2019-04-19T00:43:52.274Z,72.86
2019-04-19T00:44:59.042Z,72.57
2019-04-19T00:45:49.842Z,72.48
2019-04-19T00:46:55.308Z,72.19
2019-04-19T00:47:47.448Z,71.91
2019-04-19T00:48:46.477Z,72.38
2019-04-19T00:49:49.887Z,72.48
2019-04-19T00:50:48.571Z,72.67
2019-04-19T00:51:50.404Z,72.86
2019-04-19T00:52:50.282Z,73.72
2019-04-19T00:53:42.992Z,73.52
2019-04-19T00:54:46.006Z,73.43
2019-04-19T00:55:47.379Z,73.62
2019-04-19T00:56:47.204Z,73.72
2019-04-19T00:57:41.963Z,73.49
2019-04-19T00:58:36.235Z,73.91
2019-04-19T00:59:40.487Z,73.49
2019-04-19T01:00:36.787Z,73.14
2019-04-19T01:01:34.135Z,73.33
2019-04-19T01:02:40.657Z,73.14
2019-04-19T01:03:39.270Z,72.57
2019-04-19T01:04:36.230Z,72.38
2019-04-19T01:05:44.479Z,73.05
2019-04-19T01:06:41.958Z,73.39
2019-04-19T01:07:37.575Z,73.30
2019-04-19T01:08:38.185Z,73.01
2019-04-19T01:09:48.900Z,73.39
2019-04-19T01:10:43.791Z,73.77
2019-04-19T01:11:49.497Z,73.87
2019-04-19T01:12:47.875Z,73.96
2019-04-19T01:13:50.718Z,73.39
2019-04-19T01:14:45.191Z,73.30
2019-04-19T01:15:47.226Z,73.49
2019-04-19T01:16:51.626Z,73.39
2019-04-19T01:17:51.324Z,72.92
2019-04-19T01:18:44.016Z,72.63
2019-04-19T01:19:34.196Z,72.82
2019-04-19T01:20:33.226Z,72.92
2019-04-19T01:21:34.332Z,72.92
2019-04-19T01:22:34.679Z,72.72
2019-04-19T01:23:40.755Z,73.39
2019-04-19T01:24:39.235Z,73.49
2019-04-19T01:25:33.742Z,73.30
2019-04-19T01:26:37.268Z,73.68
2019-04-19T01:27:35.990Z,73.68
2019-04-19T01:28:33.728Z,73.68
2019-04-19T01:29:38.207Z,73.30
2019-04-19T01:30:37.026Z,73.11
2019-04-19T01:31:33.934Z,73.49
2019-04-19T01:32:35.321Z,73.11
2019-04-19T01:33:37.936Z,73.58
2019-04-19T01:34:34.062Z,72.92
2019-04-19T01:35:39.060Z,72.72
2019-04-19T01:36:38.209Z,72.63
2019-04-19T01:37:33.197Z,72.72
2019-04-19T01:38:38.534Z,73.11
2019-04-19T01:39:55.425Z,73.39
2019-04-19T01:40:57.337Z,72.53
2019-04-19T01:41:45.429Z,72.25
2019-04-19T01:42:50.314Z,72.82
2019-04-19T01:43:48.445Z,72.25
2019-04-19T01:44:47.784Z,71.87
2019-04-19T01:45:51.413Z,72.06
2019-04-19T01:46:51.184Z,71.58
2019-04-19T01:47:50.567Z,71.11
2019-04-19T01:48:46.861Z,70.92
2019-04-19T01:49:48.152Z,71.01
2019-04-19T01:50:52.070Z,70.38
2019-04-19T01:51:48.053Z,70.15
2019-04-19T01:52:53.053Z,70.67
2019-04-19T01:53:45.858Z,70.38
2019-04-19T01:54:47.991Z,71.11
2019-04-19T01:55:36.882Z,71.01
2019-04-19T01:56:32.670Z,71.30
2019-04-19T01:57:32.413Z,71.58
2019-04-19T01:58:31.832Z,72.16
2019-04-19T01:59:39.765Z,71.77
2019-04-19T02:00:41.161Z,72.06
2019-04-19T02:01:33.713Z,71.20
2019-04-19T02:02:32.680Z,71.11
2019-04-19T02:03:38.868Z,71.30
2019-04-19T02:04:33.609Z,71.30
2019-04-19T02:05:31.772Z,71.96
2019-04-19T02:06:36.800Z,72.06
2019-04-19T02:07:34.491Z,72.16
2019-04-19T02:08:33.179Z,72.16
2019-04-19T02:09:48.672Z,72.06
2019-04-19T02:10:45.264Z,71.11
2019-04-19T02:11:41.817Z,71.39
2019-04-19T02:12:42.087Z,72.06
2019-04-19T02:13:37.619Z,71.96
2019-04-19T02:14:40.771Z,72.34
2019-04-19T02:15:38.931Z,71.77
2019-04-19T02:16:31.846Z,71.20
2019-04-19T02:17:37.560Z,72.06
2019-04-19T02:18:33.620Z,72.06
2019-04-19T02:19:33.084Z,72.16
2019-04-19T02:20:36.594Z,72.16
2019-04-19T02:21:35.829Z,72.06
2019-04-19T02:22:33.539Z,72.16
2019-04-19T02:23:36.872Z,71.96
2019-04-19T02:24:37.277Z,71.58
2019-04-19T02:25:32.347Z,72.16
2019-04-19T02:26:31.932Z,71.30
2019-04-19T02:27:34.148Z,71.20
2019-04-19T02:28:35.756Z,71.30
2019-04-19T02:29:32.988Z,70.82
2019-04-19T02:30:44.193Z,70.72
2019-04-19T02:31:59.440Z,69.96
2019-04-19T02:32:46.506Z,69.87
2019-04-19T02:34:09.116Z,69.77
2019-04-19T02:34:56.841Z,69.39
2019-04-19T02:36:06.376Z,69.43
2019-04-19T02:39:06.540Z,68.85
2019-04-19T02:40:02.072Z,68.57
2019-04-19T02:41:59.428Z,69.33
2019-04-19T02:43:15.921Z,69.33
2019-04-19T02:44:01.441Z,69.52
2019-04-19T02:46:16.157Z,69.33
2019-04-19T02:47:07.049Z,69.62
2019-04-19T02:49:02.109Z,70.15
2019-04-19T02:49:58.043Z,69.87
2019-04-19T02:52:56.887Z,69.48
2019-04-19T02:55:02.180Z,69.68
2019-04-19T02:56:05.311Z,69.48
2019-04-19T02:57:03.240Z,69.20
2019-04-19T02:57:55.402Z,68.53
2019-04-19T02:59:01.401Z,68.91
2019-04-19T03:01:02.587Z,68.82
2019-04-19T03:02:11.385Z,68.72
2019-04-19T03:04:08.993Z,68.38
2019-04-19T03:05:04.126Z,68.76
2019-04-19T03:05:47.370Z,68.76
2019-04-19T03:06:36.888Z,68.85
2019-04-19T03:07:30.254Z,68.66
2019-04-19T03:08:29.410Z,68.76
2019-04-19T03:09:35.260Z,68.34
2019-04-19T03:10:31.227Z,69.04
2019-04-19T03:11:45.787Z,68.72
2019-04-19T03:12:50.017Z,68.76
2019-04-19T03:13:41.169Z,68.72
2019-04-19T03:14:45.242Z,68.72
2019-04-19T03:15:51.933Z,68.72
2019-04-19T03:16:51.084Z,68.91
2019-04-19T03:17:44.916Z,68.15
2019-04-19T03:18:42.699Z,68.82
2019-04-19T03:19:44.195Z,69.39
2019-04-19T03:20:42.598Z,69.39
2019-04-19T03:21:42.924Z,69.48
2019-04-19T03:22:42.304Z,69.39
2019-04-19T03:23:36.507Z,69.39
2019-04-19T03:24:49.321Z,69.10
2019-04-19T03:25:40.982Z,69.29
2019-04-19T03:26:42.457Z,68.63
2019-04-19T03:27:45.171Z,68.72
2019-04-19T03:28:39.864Z,69.48
2019-04-19T03:29:35.204Z,69.01
2019-04-19T03:30:51.819Z,69.39
2019-04-19T03:31:58.874Z,69.77
2019-04-19T03:33:59.288Z,70.34
2019-04-19T03:34:57.289Z,70.44
2019-04-19T03:35:49.981Z,70.34
2019-04-19T03:36:43.787Z,71.39
2019-04-19T03:37:53.154Z,71.48
2019-04-19T03:38:44.190Z,72.16
2019-04-19T03:39:58.527Z,72.63
2019-04-19T03:40:44.408Z,72.50
2019-04-19T03:41:58.004Z,72.88
2019-04-19T03:42:51.565Z,72.97
2019-04-19T03:43:47.613Z,74.02
2019-04-19T03:44:41.341Z,74.12
2019-04-19T03:45:51.712Z,74.98
2019-04-19T03:46:52.244Z,75.45
2019-04-19T03:48:58.471Z,76.59
2019-04-19T03:49:45.096Z,76.37
2019-04-19T03:50:44.351Z,77.03
2019-04-19T03:51:58.257Z,77.51
2019-04-19T03:52:46.939Z,78.08
2019-04-19T03:53:48.838Z,78.08
2019-04-19T03:54:43.963Z,77.80
2019-04-19T03:55:57.795Z,78.17
2019-04-19T03:56:43.738Z,78.94
2019-04-19T03:57:40.117Z,78.94
2019-04-19T03:58:29.238Z,78.99
2019-04-19T03:59:29.001Z,79.47
2019-04-19T04:00:28.101Z,79.94
2019-04-19T04:01:34.857Z,79.57
2019-04-19T04:02:31.753Z,79.75
2019-04-19T04:03:32.930Z,80.42
2019-04-19T04:04:31.726Z,79.75
2019-04-19T04:05:30.321Z,79.57
2019-04-19T04:06:33.772Z,79.94
2019-04-19T04:07:30.359Z,80.04
2019-04-19T04:08:28.894Z,79.85
2019-04-19T04:09:35.750Z,79.75
2019-04-19T04:10:32.764Z,80.13
2019-04-19T04:11:29.637Z,80.33
2019-04-19T04:12:38.030Z,80.52
2019-04-19T04:13:38.406Z,80.99
2019-04-19T04:14:45.525Z,81.76
2019-04-19T04:15:45.926Z,81.85
2019-04-19T04:16:35.772Z,82.23
2019-04-19T04:17:27.011Z,82.14
2019-04-19T04:18:27.937Z,82.61
2019-04-19T04:19:27.222Z,82.99
2019-04-19T04:20:26.902Z,82.80
2019-04-19T04:21:33.853Z,82.48
2019-04-19T04:22:31.886Z,82.04
2019-04-19T04:23:32.529Z,82.04
2019-04-19T04:24:32.915Z,82.14
2019-04-19T04:25:33.056Z,82.14
2019-04-19T04:26:34.866Z,82.51
2019-04-19T04:27:41.325Z,82.32
2019-04-19T04:28:40.059Z,82.14
2019-04-19T04:29:34.251Z,81.95
2019-04-19T04:30:34.764Z,82.14
2019-04-19T04:31:42.089Z,82.51
2019-04-19T04:32:39.444Z,83.04
2019-04-19T04:33:41.287Z,83.37
2019-04-19T04:34:38.759Z,83.18
2019-04-19T04:35:41.221Z,82.86
2019-04-19T04:36:48.002Z,83.14
2019-04-19T04:37:43.493Z,83.90
2019-04-19T04:38:32.671Z,83.62
2019-04-19T04:39:26.239Z,83.90
2019-04-19T04:40:27.338Z,84.38
2019-04-19T04:41:29.253Z,85.04
2019-04-19T04:42:34.912Z,84.76
2019-04-19T04:43:39.185Z,84.85
2019-04-19T04:45:54.571Z,84.38
2019-04-19T04:46:52.866Z,84.09
2019-04-19T04:47:42.021Z,84.09
2019-04-19T04:48:43.508Z,84.00
2019-04-19T04:49:50.657Z,83.81
2019-04-19T04:50:50.776Z,84.00
2019-04-19T04:51:44.828Z,83.85
2019-04-19T04:52:30.777Z,83.28
2019-04-19T04:53:25.839Z,82.99
2019-04-19T04:54:25.707Z,83.37
2019-04-19T04:55:26.315Z,82.80
2019-04-19T04:56:32.396Z,82.23
2019-04-19T04:57:35.111Z,82.23
2019-04-19T04:58:32.291Z,82.51
2019-04-19T04:59:26.892Z,83.09
2019-04-19T05:00:32.002Z,83.75
2019-04-19T05:01:35.493Z,84.42
2019-04-19T05:02:42.589Z,84.52
2019-04-19T05:03:45.611Z,83.61
2019-04-19T05:04:37.525Z,83.09
2019-04-19T05:05:39.636Z,82.99
2019-04-19T05:06:47.805Z,83.09
2019-04-19T05:07:48.836Z,83.18
2019-04-19T05:08:47.512Z,83.47
2019-04-19T05:09:47.376Z,82.90
2019-04-19T05:10:39.561Z,82.99
2019-04-19T05:11:47.219Z,82.99
2019-04-19T05:13:03.206Z,83.56
2019-04-19T05:13:43.741Z,82.90
2019-04-19T05:14:40.263Z,82.99
2019-04-19T05:15:44.694Z,83.75
2019-04-19T05:16:46.836Z,83.51
2019-04-19T05:18:46.576Z,83.13
2019-04-19T05:19:46.579Z,83.89
2019-04-19T05:20:41.294Z,83.03
2019-04-19T05:21:40.463Z,83.51
2019-04-19T05:22:36.666Z,83.32
2019-04-19T05:23:47.728Z,82.56
2019-04-19T05:24:52.932Z,82.18
2019-04-19T05:25:44.340Z,81.98
2019-04-19T05:26:44.681Z,82.08
2019-04-19T05:27:46.506Z,82.27
2019-04-19T05:28:41.059Z,81.84
2019-04-19T05:29:34.505Z,82.60
2019-04-19T05:30:39.026Z,81.93
2019-04-19T05:31:32.765Z,82.03
2019-04-19T05:32:31.050Z,80.88
2019-04-19T05:33:40.125Z,81.17
2019-04-19T05:34:41.538Z,81.84
2019-04-19T05:35:46.745Z,81.88
2019-04-19T05:36:43.817Z,81.21
2019-04-19T05:37:45.267Z,81.40
2019-04-19T05:38:52.317Z,80.83
2019-04-19T05:39:41.569Z,81.02
2019-04-19T05:40:39.047Z,79.88
2019-04-19T05:41:39.081Z,80.64
2019-04-19T05:42:39.844Z,80.26
2019-04-19T05:43:57.280Z,79.02
2019-04-19T05:44:53.582Z,77.72
2019-04-19T05:45:51.861Z,75.62
2019-04-19T05:46:48.094Z,74.29
2019-04-19T05:47:37.402Z,74.19
2019-04-19T05:48:33.662Z,74.01
2019-04-19T05:49:42.973Z,74.77
2019-04-19T05:50:39.698Z,74.52
2019-04-19T05:51:47.401Z,75.09
2019-04-19T05:52:42.388Z,75.85
2019-04-19T05:53:34.062Z,77.95
2019-04-19T05:54:23.969Z,78.09
2019-04-19T05:55:23.935Z,77.23
2019-04-19T05:56:24.220Z,77.23
2019-04-19T05:57:41.128Z,77.51
2019-04-19T05:58:39.608Z,78.37
2019-04-19T05:59:37.950Z,78.66
2019-04-19T06:00:37.816Z,78.66
2019-04-19T06:01:41.683Z,79.14
2019-04-19T06:02:32.687Z,79.04
2019-04-19T06:03:41.380Z,78.56
2019-04-19T06:04:45.317Z,78.60
2019-04-19T06:05:52.986Z,76.79
2019-04-19T06:06:38.954Z,76.31
2019-04-19T06:07:39.445Z,74.78
2019-04-19T06:08:29.367Z,76.12
2019-04-19T06:09:23.942Z,77.01
2019-04-19T06:10:25.456Z,77.21
2019-04-19T06:11:29.009Z,76.73
2019-04-19T06:12:28.212Z,74.91
2019-04-19T06:13:23.540Z,75.20
2019-04-19T06:14:45.173Z,74.91
2019-04-19T06:15:51.253Z,70.65
2019-04-19T06:16:39.339Z,68.84
2019-04-19T06:17:41.042Z,67.11
2019-04-19T06:18:36.076Z,67.02
2019-04-19T06:19:35.414Z,66.76
2019-04-19T06:20:43.913Z,67.14
2019-04-19T06:21:36.688Z,66.96
2019-04-19T06:22:43.026Z,66.76
2019-04-19T06:23:43.932Z,66.09
2019-04-19T06:24:43.741Z,66.51
2019-04-19T06:25:52.745Z,66.99
2019-04-19T06:27:53.649Z,66.70
2019-04-19T06:28:55.667Z,67.47
2019-04-19T06:29:55.075Z,67.08
2019-04-19T06:30:44.033Z,66.70
2019-04-19T06:31:46.112Z,66.41
2019-04-19T06:32:46.371Z,66.93
2019-04-19T06:33:43.170Z,66.35
2019-04-19T06:34:42.702Z,67.69
2019-04-19T06:35:35.632Z,68.55
2019-04-19T06:36:23.039Z,68.46
2019-04-19T06:37:27.670Z,67.82
2019-04-19T06:38:22.634Z,67.21
2019-04-19T06:39:22.615Z,67.15
2019-04-19T06:40:27.684Z,67.54
2019-04-19T06:41:24.948Z,66.58
2019-04-19T06:42:31.859Z,66.89
2019-04-19T06:43:35.087Z,66.51
2019-04-19T06:44:44.679Z,66.03
2019-04-19T06:45:34.416Z,65.65
2019-04-19T06:46:36.409Z,64.31
2019-04-19T06:47:29.671Z,63.83
2019-04-19T06:48:28.093Z,62.10
2019-04-19T06:49:26.134Z,61.53
2019-04-19T06:50:30.018Z,58.65
2019-04-19T06:51:28.578Z,58.65
2019-04-19T06:52:26.418Z,57.98
2019-04-19T06:53:22.939Z,58.75
2019-04-19T06:54:28.545Z,58.17
2019-04-19T06:55:28.523Z,58.20
2019-04-19T06:56:28.341Z,57.72
2019-04-19T06:57:27.300Z,56.76
2019-04-19T06:58:27.291Z,56.83
2019-04-19T06:59:40.842Z,57.89
2019-04-19T07:00:36.290Z,57.82
2019-04-19T07:01:32.863Z,57.72
2019-04-19T07:02:22.225Z,57.24
2019-04-19T07:03:21.640Z,57.34
2019-04-19T07:04:21.382Z,57.75
2019-04-19T07:05:33.838Z,57.56
2019-04-19T07:06:36.329Z,58.42
2019-04-19T07:07:36.515Z,59.00
2019-04-19T07:09:45.128Z,58.62
2019-04-19T07:11:46.544Z,58.04
2019-04-19T07:12:41.389Z,58.81
2019-04-19T07:13:32.585Z,59.00
2019-04-19T07:14:24.989Z,57.28
2019-04-19T07:16:39.622Z,56.79
2019-04-19T07:17:38.999Z,56.53
2019-04-19T07:18:33.820Z,56.15
2019-04-19T07:19:41.140Z,56.34
2019-04-19T07:20:36.113Z,56.44
2019-04-19T07:21:37.321Z,56.15
2019-04-19T07:22:38.867Z,56.95
2019-04-19T07:23:42.004Z,56.95
2019-04-19T07:24:45.782Z,56.40
2019-04-19T07:25:51.330Z,55.44
2019-04-19T07:26:42.590Z,54.79
2019-04-19T07:27:34.024Z,54.89
2019-04-19T07:28:26.412Z,53.45
2019-04-19T07:29:21.172Z,53.83
2019-04-19T07:30:20.591Z,52.97
2019-04-19T07:31:21.705Z,53.25
2019-04-19T07:32:30.613Z,53.64
2019-04-19T07:33:31.517Z,52.10
2019-04-19T07:34:37.090Z,52.20
2019-04-19T07:35:43.205Z,51.26
2019-04-19T07:36:40.138Z,51.55
2019-04-19T07:37:34.892Z,51.26
2019-04-19T07:38:41.527Z,51.93
2019-04-19T07:39:37.797Z,52.80
2019-04-19T07:40:42.879Z,52.15
2019-04-19T07:41:39.836Z,52.25
2019-04-19T07:42:39.791Z,50.71
2019-04-19T07:43:37.887Z,49.65
2019-04-19T07:44:32.023Z,49.17
2019-04-19T07:45:32.026Z,50.42
2019-04-19T07:46:38.402Z,48.21
2019-04-19T07:47:29.450Z,46.47
2019-04-19T07:48:23.586Z,46.67
2019-04-19T07:49:20.843Z,47.24
2019-04-19T07:50:26.148Z,46.09
2019-04-19T07:51:26.567Z,47.92
2019-04-19T07:52:24.651Z,48.30
2019-04-19T07:53:29.587Z,48.40
2019-04-19T07:54:23.680Z,48.69
2019-04-19T07:55:20.792Z,48.40
2019-04-19T07:56:31.385Z,49.38
2019-04-19T07:57:51.476Z,50.35
2019-04-19T07:58:45.887Z,49.29
2019-04-19T08:00:52.086Z,45.25
2019-04-19T08:01:54.465Z,46.40
2019-04-19T08:02:49.817Z,46.31
2019-04-19T08:04:03.844Z,47.08
2019-04-19T08:05:53.002Z,46.78
2019-04-19T08:06:50.959Z,47.17
2019-04-19T08:09:50.018Z,45.25
2019-04-19T08:12:03.188Z,46.62
2019-04-19T08:13:01.066Z,47.00
2019-04-19T08:16:01.267Z,46.64
2019-04-19T08:17:56.533Z,45.97
2019-04-19T08:27:24.734Z,44.02
2019-04-19T08:28:29.224Z,45.27
2019-04-19T08:29:32.263Z,44.98
2019-04-19T08:30:30.189Z,43.63
2019-04-19T08:31:19.493Z,44.13
2019-04-19T08:32:19.418Z,45.20
2019-04-19T08:33:19.051Z,45.12
2019-04-19T08:34:21.739Z,43.10
2019-04-19T08:35:19.388Z,42.80
2019-04-19T08:36:25.555Z,43.19
2019-04-19T08:37:28.081Z,43.58
2019-04-19T08:38:23.031Z,42.73
2019-04-19T08:39:38.839Z,44.56
2019-04-19T08:40:37.776Z,44.39
2019-04-19T08:41:31.583Z,44.59
2019-04-19T08:42:34.302Z,44.39
2019-04-19T08:43:38.185Z,42.75
2019-04-19T08:44:36.505Z,42.19
2019-04-19T08:45:22.787Z,40.65
2019-04-19T08:46:19.740Z,42.19
2019-04-19T08:47:27.872Z,43.93
2019-04-19T08:48:25.014Z,42.39
2019-04-19T08:49:22.745Z,40.26
2019-04-19T08:50:18.507Z,40.55
2019-04-19T08:51:25.190Z,40.55
2019-04-19T08:52:24.853Z,41.61
2019-04-19T08:53:33.671Z,42.39
2019-04-19T08:54:43.564Z,42.39
2019-04-19T08:55:35.326Z,40.47
2019-04-19T08:56:29.393Z,39.70
2019-04-19T08:57:22.231Z,39.99
2019-04-19T08:58:37.681Z,40.96
2019-04-19T09:00:44.969Z,41.08
2019-04-19T09:01:40.444Z,40.01
2019-04-19T09:02:36.272Z,38.76
2019-04-19T09:03:42.472Z,39.34
2019-04-19T09:04:34.466Z,38.76
2019-04-19T09:05:31.017Z,39.24
2019-04-19T09:07:26.661Z,39.43
2019-04-19T09:08:37.429Z,38.08
2019-04-19T09:09:48.471Z,38.45
2019-04-19T09:10:33.699Z,38.54
2019-04-19T09:11:36.471Z,39.90
2019-04-19T09:12:34.569Z,39.90
2019-04-19T09:13:38.095Z,40.09
2019-04-19T09:14:39.956Z,39.99
2019-04-19T09:15:34.073Z,40.09
2019-04-19T09:16:34.574Z,39.04
2019-04-19T09:17:57.740Z,39.24
2019-04-19T09:18:46.226Z,38.85
2019-04-19T09:19:55.043Z,39.84
2019-04-19T09:20:38.744Z,37.90
2019-04-19T09:21:30.773Z,39.55
2019-04-19T09:22:36.061Z,38.31
2019-04-19T09:23:31.135Z,37.85
2019-04-19T09:24:31.018Z,38.83
2019-04-19T09:25:30.281Z,37.38
2019-04-19T09:26:38.701Z,36.82
2019-04-19T09:27:41.742Z,35.07
2019-04-19T09:29:40.343Z,33.91
2019-04-19T09:30:37.921Z,35.07
2019-04-19T09:31:34.487Z,33.81
2019-04-19T09:32:21.580Z,33.83
2019-04-19T09:33:25.666Z,35.09
2019-04-19T09:34:21.544Z,34.80
2019-04-19T09:35:20.325Z,34.61
2019-04-19T09:36:20.624Z,34.72
2019-04-19T09:37:33.983Z,33.75
2019-04-19T09:38:29.793Z,34.62
2019-04-19T09:39:31.311Z,32.39
2019-04-19T09:40:29.308Z,31.32
2019-04-19T09:41:25.604Z,32.99
2019-04-19T09:42:32.581Z,33.01
2019-04-19T09:43:31.007Z,33.69
2019-04-19T09:44:25.810Z,32.82
2019-04-19T09:45:17.159Z,30.22
2019-04-19T09:46:17.134Z,31.07
2019-04-19T09:47:17.113Z,32.52
2019-04-19T09:48:40.259Z,31.37
2019-04-19T09:49:35.465Z,33.51
2019-04-19T09:50:36.308Z,32.13
2019-04-19T09:51:35.273Z,31.92
2019-04-19T09:52:57.142Z,34.95
2019-04-19T09:53:43.232Z,33.51
2019-04-19T09:54:41.601Z,32.64
2019-04-19T09:55:39.211Z,31.07
2019-04-19T09:56:38.351Z,31.37
2019-04-19T09:57:38.499Z,32.65
2019-04-19T09:58:35.466Z,31.26
2019-04-19T09:59:25.415Z,30.71
2019-04-19T10:00:22.283Z,29.91
2019-04-19T10:01:16.799Z,31.48
2019-04-19T10:02:25.542Z,29.85
2019-04-19T10:03:25.506Z,30.25
2019-04-19T10:04:16.821Z,30.14
2019-04-19T10:05:16.864Z,30.64
2019-04-19T10:06:17.136Z,29.94
2019-04-19T10:07:16.717Z,28.40
2019-04-19T10:08:17.676Z,30.35
2019-04-19T10:09:20.743Z,30.33
2019-04-19T10:10:16.597Z,29.75
2019-04-19T10:11:16.968Z,29.97
2019-04-19T10:12:17.381Z,29.39
2019-04-19T10:13:16.530Z,28.32
2019-04-19T10:14:17.254Z,28.53
2019-04-19T10:15:16.493Z,28.94
2019-04-19T10:16:16.689Z,27.78
2019-04-19T10:17:16.442Z,27.48
2019-04-19T10:18:16.579Z,27.68
2019-04-19T10:19:16.829Z,27.84
2019-04-19T10:20:16.374Z,27.87
2019-04-19T10:21:20.405Z,28.25
2019-04-19T10:22:16.682Z,29.32
2019-04-19T10:23:17.479Z,29.81
2019-04-19T10:24:19.681Z,27.68
2019-04-19T10:25:16.877Z,28.15
2019-04-19T10:26:16.247Z,28.85
2019-04-19T10:27:17.129Z,29.33
2019-04-19T10:28:16.196Z,28.07
2019-04-19T10:29:24.615Z,29.24
2019-04-19T10:30:17.661Z,28.45
2019-04-19T10:31:16.124Z,27.11
2019-04-19T10:32:16.818Z,26.25
2019-04-19T10:33:28.117Z,27.52
2019-04-19T10:34:16.532Z,28.39
2019-04-19T10:35:16.043Z,27.02
2019-04-19T10:36:16.020Z,25.05
2019-04-19T10:37:15.997Z,26.31
2019-04-19T10:38:15.974Z,27.79
2019-04-19T10:39:16.814Z,27.12
2019-04-19T10:40:15.950Z,25.84
2019-04-19T10:41:15.918Z,26.84
2019-04-19T10:42:18.912Z,27.34
2019-04-19T10:43:16.888Z,26.37
2019-04-19T10:44:19.019Z,25.75
2019-04-19T10:45:16.280Z,24.77
2019-04-19T10:46:15.796Z,26.54
2019-04-19T10:47:16.679Z,26.37
2019-04-19T10:48:15.915Z,25.37
2019-04-19T10:49:22.879Z,25.67
2019-04-19T10:50:28.264Z,25.57
2019-04-19T10:51:15.689Z,24.61
2019-04-19T10:52:15.665Z,24.32
2019-04-19T10:53:18.977Z,25.78
2019-04-19T10:54:15.625Z,26.38
2019-04-19T10:55:16.211Z,25.12
2019-04-19T10:56:16.395Z,23.26
2019-04-19T10:57:17.450Z,24.05
2019-04-19T10:58:15.573Z,23.25
2019-04-19T10:59:16.450Z,23.83
2019-04-19T11:00:15.732Z,24.43
2019-04-19T11:01:15.644Z,23.55
2019-04-19T11:02:15.863Z,23.57
2019-04-19T11:03:15.420Z,24.92
2019-04-19T11:04:15.403Z,24.42
2019-04-19T11:05:16.463Z,23.36
2019-04-19T11:06:16.751Z,24.74
2019-04-19T11:07:15.786Z,24.46
2019-04-19T11:08:15.316Z,24.75
2019-04-19T11:09:16.333Z,23.57
2019-04-19T11:10:15.813Z,23.18
2019-04-19T11:11:15.894Z,21.62
2019-04-19T11:12:15.724Z,21.62
2019-04-19T11:13:15.248Z,21.92
2019-04-19T11:14:16.260Z,21.04
2019-04-19T11:15:16.220Z,22.12
2019-04-19T11:16:15.331Z,22.70
2019-04-19T11:17:15.944Z,23.05
2019-04-19T11:18:15.097Z,24.12
2019-04-19T11:19:23.354Z,23.25
2019-04-19T11:20:26.340Z,23.05
2019-04-19T11:21:15.803Z,22.17
2019-04-19T11:22:15.003Z,22.96
2019-04-19T11:23:15.573Z,22.47
2019-04-19T11:24:15.822Z,22.28
2019-04-19T11:25:14.967Z,21.88
2019-04-19T11:26:14.935Z,21.97
2019-04-19T11:27:15.221Z,22.76
2019-04-19T11:28:15.328Z,22.37
2019-04-19T11:29:15.617Z,24.42
2019-04-19T11:30:15.085Z,22.85
2019-04-19T11:31:17.627Z,22.56
2019-04-19T11:32:15.744Z,22.87
2019-04-19T11:33:15.043Z,22.02
2019-04-19T11:34:15.092Z,20.67
2019-04-19T11:35:14.728Z,21.24
2019-04-19T11:36:15.414Z,22.81
2019-04-19T11:37:15.694Z,21.73
2019-04-19T11:38:15.248Z,19.68
2019-04-19T11:39:14.900Z,19.69
2019-04-19T11:40:15.274Z,21.06
2019-04-19T11:41:15.404Z,20.27
2019-04-19T11:42:15.191Z,19.78
2019-04-19T11:43:15.879Z,19.69
2019-04-19T11:44:18.201Z,19.60
2019-04-19T11:45:15.694Z,19.31
2019-04-19T11:46:14.487Z,19.12
2019-04-19T11:47:15.331Z,20.29
2019-04-19T11:48:15.086Z,19.02
2019-04-19T11:49:23.793Z,19.24
2019-04-19T11:50:15.641Z,18.17
2019-04-19T11:51:14.373Z,20.14
2019-04-19T11:52:14.356Z,18.06
2019-04-19T11:53:14.461Z,19.12
2019-04-19T11:54:14.541Z,21.50
2019-04-19T11:55:14.717Z,19.43
2019-04-19T11:56:14.440Z,17.55
2019-04-19T11:57:14.415Z,19.18
2019-04-19T11:58:14.688Z,18.19
2019-04-19T11:59:14.283Z,20.14
2019-04-19T12:00:14.187Z,19.65
2019-04-19T12:01:14.250Z,20.64
2019-04-19T12:02:14.140Z,19.09
2019-04-19T12:03:14.119Z,19.41
2019-04-19T12:04:14.298Z,18.94
2019-04-19T12:05:21.082Z,19.12
2019-04-19T12:06:14.398Z,18.99
2019-04-19T12:07:14.531Z,18.99
2019-04-19T12:08:14.812Z,18.79
2019-04-19T12:09:14.254Z,19.98
2019-04-19T12:10:14.569Z,19.89
2019-04-19T12:11:14.635Z,19.78
2019-04-19T12:12:15.003Z,18.01
2019-04-19T12:13:15.084Z,18.41
2019-04-19T12:14:14.237Z,19.76
2019-04-19T12:15:13.951Z,19.76
2019-04-19T12:16:14.936Z,20.04
2019-04-19T12:17:15.158Z,19.56
2019-04-19T12:18:13.796Z,19.07
2019-04-19T12:19:14.014Z,19.26
2019-04-19T12:20:15.115Z,21.44
2019-04-19T12:21:13.739Z,20.27
2019-04-19T12:22:14.805Z,20.18
2019-04-19T12:23:13.918Z,19.80
2019-04-19T12:24:14.924Z,18.93
2019-04-19T12:25:13.643Z,17.94
2019-04-19T12:26:13.779Z,17.92
2019-04-19T12:27:13.842Z,18.00
2019-04-19T12:28:13.579Z,18.88
2019-04-19T12:29:28.552Z,20.25
2019-04-19T12:30:13.653Z,19.85
2019-04-19T12:31:13.717Z,19.56
2019-04-19T12:32:13.491Z,19.46
2019-04-19T12:33:13.468Z,18.98
2019-04-19T12:34:14.603Z,19.78
2019-04-19T12:35:13.424Z,19.20
2019-04-19T12:36:13.403Z,18.01
2019-04-19T12:37:13.455Z,18.87
2019-04-19T12:38:14.349Z,20.84
2019-04-19T12:39:14.746Z,20.26
2019-04-19T12:40:13.315Z,20.56
2019-04-19T12:41:14.326Z,21.09
2019-04-19T12:42:13.527Z,19.22
2019-04-19T12:43:14.047Z,18.33
2019-04-19T12:44:13.385Z,17.66
2019-04-19T12:45:13.543Z,19.04
2019-04-19T12:46:13.186Z,18.13
2019-04-19T12:47:13.162Z,17.73
2019-04-19T12:48:13.950Z,18.91
2019-04-19T12:49:14.315Z,19.10
2019-04-19T12:50:14.777Z,19.22
2019-04-19T12:51:14.154Z,18.15
2019-04-19T12:52:13.053Z,19.12
2019-04-19T12:53:13.047Z,18.62
2019-04-19T12:54:14.073Z,18.52
2019-04-19T12:55:14.348Z,17.35
2019-04-19T12:56:13.951Z,18.81
2019-04-19T12:57:14.046Z,19.90
2019-04-19T12:58:14.064Z,16.28
2019-04-19T12:59:13.864Z,17.96
2019-04-19T13:00:14.173Z,18.35
2019-04-19T13:01:14.110Z,17.07
2019-04-19T13:02:13.757Z,17.86
2019-04-19T13:03:13.843Z,17.86
2019-04-19T13:04:13.015Z,16.31
2019-04-19T13:05:14.136Z,17.48
2019-04-19T13:06:13.465Z,16.20
2019-04-19T13:07:13.104Z,15.34
2019-04-19T13:08:12.704Z,14.95
2019-04-19T13:09:12.980Z,14.67
2019-04-19T13:10:13.156Z,14.09
2019-04-19T13:11:12.647Z,16.05
2019-04-19T13:12:12.950Z,15.16
2019-04-19T13:13:13.893Z,14.75
2019-04-19T13:14:12.577Z,15.34
2019-04-19T13:15:13.687Z,16.12
2019-04-19T13:16:12.534Z,15.40
2019-04-19T13:17:12.606Z,15.47
2019-04-19T13:18:12.484Z,16.15
2019-04-19T13:19:12.468Z,17.82
2019-04-19T13:20:19.150Z,19.68
2019-04-19T13:21:13.757Z,19.00
2019-04-19T13:22:12.407Z,17.94
2019-04-19T13:23:12.585Z,17.65
2019-04-19T13:24:12.372Z,16.88
2019-04-19T13:25:15.080Z,16.98
2019-04-19T13:26:13.483Z,16.01
2019-04-19T13:27:12.326Z,15.42
2019-04-19T13:28:13.257Z,16.18
2019-04-19T13:29:13.406Z,16.58
2019-04-19T13:30:22.542Z,15.01